Silver Lake, Oregon
Current Conditions -  °F | °C
As of 1:35 PM on Friday 28 Nov 2014 (Local Time) from KBDN Reporting Station
Clear Clear  
Wind Chill: 42°   Ceiling: Unl
Heat Index: 48°   Visibility: 10mi
Dew Point: 37°   Wind: 17mph
Humidity: 66%   Direction: 210°SSW
Pressure: 29.6"   Gusts: 31mph
Location:  43.13°N, 121.05°W
Report Text: KBDN 282135Z AUTO 21015G27KT 10SM CLR 09/03 A2960 RMK AO2
Loading
Personal Weather Stations






























Interactive Weather Map New forecast layout! Learn more

10-Day Weather Forecast

Advertisements
Track Severe Weather on mobile